Minerva Virgo — SXXT — position and weather

sailwx.info

Track history (hours):
 
Tides and Currents Weather Stations Pressure Air Temp Water Temp Dewpoint Dewpoint Depression Visibility Wind Speed Wind Dir Waves Ship Positions

Minerva Virgo

Last reported at 2015-Sep-02 23:33 UTC. Time now 2015-Sep-04 05:47 UTC.
Position N 43°15' E 034°09'.

Length 183 m; draft 10.2 m.

Type: Ship (hazmat cat A). MMSI: 240730000.

Date/timePositionNaut miles runAvg speedWind from/ knotsBaromVisibWave heightAir tempDewpointWater temp
2015-Sep-02 23:33N 43°15' E 034°09'1211.8
2015-Sep-02 22:33N 43°20' E 034°23'1211.5
2015-Sep-02 21:33N 43°25' E 034°37'1211.7
2015-Sep-02 20:33N 43°31' E 034°52'1212.0
2015-Sep-02 19:33N 43°36' E 035°07'1212.2
2015-Sep-02 18:33N 43°41' E 035°22'1212.3
2015-Sep-02 17:33N 43°47' E 035°37'1212.3
2015-Sep-02 16:33N 43°53' E 035°52'1211.8
2015-Sep-02 15:34N 43°58' E 036°07'1211.7
2015-Sep-02 14:33N 44°03' E 036°21'1211.8
2015-Sep-02 13:33N 44°08' E 036°36'1212.0
2015-Sep-02 12:33N 44°14' E 036°51'1211.9
2015-Sep-02 11:33N 44°19' E 037°06'1211.9
2015-Sep-02 10:32N 44°25' E 037°21'1212.7
2015-Sep-02 09:33N 44°30' E 037°36'1211.9
2015-Sep-02 08:32N 44°35' E 037°52'1 0.2
2015-Sep-02 03:32N 44°35' E 037°54'0 0.0
2015-Sep-02 02:32N 44°35' E 037°53'0 0.0
2015-Sep-02 01:32N 44°35' E 037°53'0 0.0
2015-Sep-02 00:32N 44°35' E 037°53'0 0.0
2015-Sep-01 23:32N 44°35' E 037°53'0 0.0
2015-Sep-01 22:32N 44°35' E 037°53'0 0.0
2015-Sep-01 21:32N 44°35' E 037°53'0 0.0
2015-Sep-01 20:32N 44°35' E 037°53'0 0.0
2015-Sep-01 19:32N 44°35' E 037°53'0 0.0
2015-Sep-01 18:32N 44°35' E 037°53'0 0.0
2015-Sep-01 17:32N 44°35' E 037°54'0 0.0
2015-Sep-01 16:32N 44°35' E 037°54'0 0.2
2015-Sep-01 15:33N 44°35' E 037°53'5 5.3
2015-Sep-01 14:33N 44°40' E 037°50'2 2.4
2015-Sep-01 13:33N 44°43' E 037°50'0 0.0
2015-Sep-01 12:30N 44°43' E 037°50'0 0.0
2015-Sep-01 11:30N 44°43' E 037°50'0 0.0
2015-Sep-01 10:33N 44°43' E 037°50'0 0.0
2015-Sep-01 09:33N 44°43' E 037°50'0 0.0
2015-Sep-01 08:33N 44°43' E 037°50'0 0.0
2015-Sep-01 07:33N 44°43' E 037°50'0 0.0
2015-Sep-01 06:33N 44°43' E 037°50'0 0.0
2015-Sep-01 05:24N 44°43' E 037°50'0 0.0
2015-Aug-31 03:32N 44°43' E 037°50'0 0.0
2015-Aug-31 02:32N 44°43' E 037°50'0 0.0
2015-Aug-31 01:32N 44°43' E 037°50'0 0.0
2015-Aug-31 00:32N 44°43' E 037°50'0 0.0
2015-Aug-30 23:33N 44°43' E 037°50'0 0.0
2015-Aug-30 22:33N 44°43' E 037°50'4 3.5
2015-Aug-30 21:33N 44°39' E 037°51'3 2.9
2015-Aug-30 20:33N 44°36' E 037°52'6 6.0
2015-Aug-30 19:33N 44°31' E 037°47'85 6.6
2015-Aug-30 06:33N 43°52' E 036°01'9 9.5
2015-Aug-30 05:33N 43°48' E 035°50'10 9.6
2015-Aug-30 04:33N 43°44' E 035°38'9 9.3
2015-Aug-30 03:33N 43°39' E 035°26'9 9.2
2015-Aug-30 02:33N 43°35' E 035°15'9 9.4
2015-Aug-30 01:33N 43°31' E 035°03'10 9.6
2015-Aug-30 00:33N 43°26' E 034°52'10 9.6
2015-Aug-29 23:33N 43°22' E 034°40'8 7.9
2015-Aug-29 22:33N 43°18' E 034°30'6 6.5
2015-Aug-29 21:33N 43°16' E 034°22'7 6.6
2015-Aug-29 20:33N 43°13' E 034°14'7 6.7
2015-Aug-29 19:33N 43°10' E 034°06'263 8.8
2015-Aug-28 13:33N 40°58' E 028°60'7 5.5
2015-Aug-28 12:20N 40°52' E 028°54'6 7.7
2015-Aug-28 11:33N 40°48' E 028°49'4 0.7
2015-Aug-28 06:19N 40°49' E 028°53'6 7.6
2015-Aug-28 05:32N 40°50' E 028°45'260 8.3
2015-Aug-26 22:06N 37°55' E 024°36'15 9.5
2015-Aug-26 20:29N 37°40' E 024°31'  
Track history (hours):
 
Tides and Currents Weather Stations Pressure Air Temp Water Temp Dewpoint Dewpoint Depression Visibility Wind Speed Wind Dir Waves Ship Positions

Minerva Virgo

Last reported at 2015-Sep-02 23:33 UTC. Time now 2015-Sep-04 05:47 UTC.
Position N 43°15' E 034°09'.

Length 183 m; draft 10.2 m.

Type: Ship (hazmat cat A). MMSI: 240730000.

Date/timePositionNaut miles runAvg speedWind from/ knotsBaromVisibWave heightAir tempDewpointWater temp
2015-Sep-02 23:33N 43°15' E 034°09'1211.8
2015-Sep-02 22:33N 43°20' E 034°23'1211.5
2015-Sep-02 21:33N 43°25' E 034°37'1211.7
2015-Sep-02 20:33N 43°31' E 034°52'1212.0
2015-Sep-02 19:33N 43°36' E 035°07'1212.2
2015-Sep-02 18:33N 43°41' E 035°22'1212.3
2015-Sep-02 17:33N 43°47' E 035°37'1212.3
2015-Sep-02 16:33N 43°53' E 035°52'1211.8
2015-Sep-02 15:34N 43°58' E 036°07'1211.7
2015-Sep-02 14:33N 44°03' E 036°21'1211.8
2015-Sep-02 13:33N 44°08' E 036°36'1212.0
2015-Sep-02 12:33N 44°14' E 036°51'1211.9
2015-Sep-02 11:33N 44°19' E 037°06'1211.9
2015-Sep-02 10:32N 44°25' E 037°21'1212.7
2015-Sep-02 09:33N 44°30' E 037°36'1211.9
2015-Sep-02 08:32N 44°35' E 037°52'1 0.2
2015-Sep-02 03:32N 44°35' E 037°54'0 0.0
2015-Sep-02 02:32N 44°35' E 037°53'0 0.0
2015-Sep-02 01:32N 44°35' E 037°53'0 0.0
2015-Sep-02 00:32N 44°35' E 037°53'0 0.0
2015-Sep-01 23:32N 44°35' E 037°53'0 0.0
2015-Sep-01 22:32N 44°35' E 037°53'0 0.0
2015-Sep-01 21:32N 44°35' E 037°53'0 0.0
2015-Sep-01 20:32N 44°35' E 037°53'0 0.0
2015-Sep-01 19:32N 44°35' E 037°53'0 0.0
2015-Sep-01 18:32N 44°35' E 037°53'0 0.0
2015-Sep-01 17:32N 44°35' E 037°54'0 0.0
2015-Sep-01 16:32N 44°35' E 037°54'0 0.2
2015-Sep-01 15:33N 44°35' E 037°53'5 5.3
2015-Sep-01 14:33N 44°40' E 037°50'2 2.4
2015-Sep-01 13:33N 44°43' E 037°50'0 0.0
2015-Sep-01 12:30N 44°43' E 037°50'0 0.0
2015-Sep-01 11:30N 44°43' E 037°50'0 0.0
2015-Sep-01 10:33N 44°43' E 037°50'0 0.0
2015-Sep-01 09:33N 44°43' E 037°50'0 0.0
2015-Sep-01 08:33N 44°43' E 037°50'0 0.0
2015-Sep-01 07:33N 44°43' E 037°50'0 0.0
2015-Sep-01 06:33N 44°43' E 037°50'0 0.0
2015-Sep-01 05:24N 44°43' E 037°50'0 0.0
2015-Aug-31 03:32N 44°43' E 037°50'0 0.0
2015-Aug-31 02:32N 44°43' E 037°50'0 0.0
2015-Aug-31 01:32N 44°43' E 037°50'0 0.0
2015-Aug-31 00:32N 44°43' E 037°50'0 0.0
2015-Aug-30 23:33N 44°43' E 037°50'0 0.0
2015-Aug-30 22:33N 44°43' E 037°50'4 3.5
2015-Aug-30 21:33N 44°39' E 037°51'3 2.9
2015-Aug-30 20:33N 44°36' E 037°52'6 6.0
2015-Aug-30 19:33N 44°31' E 037°47'85 6.6
2015-Aug-30 06:33N 43°52' E 036°01'9 9.5
2015-Aug-30 05:33N 43°48' E 035°50'10 9.6
2015-Aug-30 04:33N 43°44' E 035°38'9 9.3
2015-Aug-30 03:33N 43°39' E 035°26'9 9.2
2015-Aug-30 02:33N 43°35' E 035°15'9 9.4
2015-Aug-30 01:33N 43°31' E 035°03'10 9.6
2015-Aug-30 00:33N 43°26' E 034°52'10 9.6
2015-Aug-29 23:33N 43°22' E 034°40'8 7.9
2015-Aug-29 22:33N 43°18' E 034°30'6 6.5
2015-Aug-29 21:33N 43°16' E 034°22'7 6.6
2015-Aug-29 20:33N 43°13' E 034°14'7 6.7
2015-Aug-29 19:33N 43°10' E 034°06'263 8.8
2015-Aug-28 13:33N 40°58' E 028°60'7 5.5
2015-Aug-28 12:20N 40°52' E 028°54'6 7.7
2015-Aug-28 11:33N 40°48' E 028°49'4 0.7
2015-Aug-28 06:19N 40°49' E 028°53'6 7.6
2015-Aug-28 05:32N 40°50' E 028°45'260 8.3
2015-Aug-26 22:06N 37°55' E 024°36'15 9.5
2015-Aug-26 20:29N 37°40' E 024°31'  

Dump ship's entire track history